Latest Coastal Weather Observations for Arlington Reef

IDQ60701

Issued at 12:01 am EST Wednesday 7 December 2016 (issued every 10 minutes, with the page automatically refreshed every 10 minutes)

About coastal observations | Map of coastal stations | Coastal observations for QLD | Marine services | Other Formats
Station Details ID: 200879 Name: ARLINGTON REEF Lat: -16.72 Lon: 146.11 Height: 0.0 m
Data from the previous 72 hours. | See also: Recent months at Arlington Reef
Date/Time
EST
Temp
°C
Wind Pressure Rain since
9am
mm
Weather Cloud Vis
km
Sea
Height
m
Swell
Dir  Spd
kts
Gust
kts
hPa Trend Height
m
Period
s
Dir
07/12:00am - SE 17 21 1011.0 - - - - - - - - -
 
Date/Time
EST
Temp
°C
Wind Pressure Rain since
9am
mm
Weather Cloud Vis
km
Sea
Height
m
Swell
Dir  Spd
kts
Gust
kts
hPa Trend Height
m
Period
s
Dir
06/11:30pm - SE 18 22 1011.4 - - - - - - - - -
06/11:00pm - SE 19 23 1011.5 - - - - - - - - -
06/10:30pm - SE 18 22 1011.4 - - - - - - - - -
06/10:00pm - SE 17 19 1011.4 - - - - - - - - -
06/09:30pm - SE 15 18 1011.3 - - - - - - - - -
06/09:00pm - SE 15 17 1011.3 - - - - - - - - -
06/08:30pm - SE 17 19 1011.3 - - - - - - - - -
06/08:00pm - SE 19 22 1011.3 - - - - - - - - -
06/07:30pm - SE 19 21 1011.0 - - - - - - - - -
06/07:00pm - SE 19 21 1011.0 - - - - - - - - -
06/06:30pm - SE 17 20 1010.6 - - - - - - - - -
06/06:00pm - SE 16 19 1010.6 - - - - - - - - -
06/05:30pm - SE 15 17 1010.3 - - - - - - - - -
06/05:00pm - SE 15 17 1010.2 - - - - - - - - -
06/04:30pm - SE 14 16 1010.3 - - - - - - - - -
06/04:00pm - SE 14 16 1010.3 - - - - - - - - -
06/03:30pm - SE 12 14 1010.4 - - - - - - - - -
06/03:00pm - SE 11 13 1010.7 - - - - - - - - -
06/02:30pm - SE 10 12 1011.2 - - - - - - - - -
06/02:00pm - SSE 12 13 1011.6 - - - - - - - - -
06/01:30pm - SE 11 13 1012.0 - - - - - - - - -
06/01:00pm - SSE 11 13 1012.6 - - - - - - - - -
06/12:30pm - SSE 10 12 1013.0 - - - - - - - - -
06/12:00pm - SE 10 13 1013.4 - - - - - - - - -
06/11:30am - SE 10 11 1013.7 - - - - - - - - -
06/11:00am - SSE 12 14 1013.8 - - - - - - - - -
06/10:30am - SE 10 12 1014.2 - - - - - - - - -
06/10:00am - SE 10 12 1014.4 - - - - - - - - -
06/09:30am - SE 10 12 1014.6 - - - - - - - - -
06/09:00am - SE 12 14 1014.5 - - - - - - - - -
06/08:30am - ESE 14 16 1014.3 - - - - - - - - -
06/08:00am - SE 14 16 1014.0 - - - - - - - - -
06/07:30am - SE 11 13 1013.8 - - - - - - - - -
06/07:00am - SE 12 14 1013.7 - - - - - - - - -
06/06:30am - SE 15 17 1013.3 - - - - - - - - -
06/06:00am - SE 12 14 1013.1 - - - - - - - - -
06/05:30am - ESE 12 15 1012.3 - - - - - - - - -
06/05:00am - ESE 14 16 1012.0 - - - - - - - - -
06/04:30am - SE 13 15 1011.7 - - - - - - - - -
06/04:00am - SE 13 15 1011.5 - - - - - - - - -
06/03:30am - ESE 14 15 1011.2 - - - - - - - - -
06/03:00am - ESE 12 17 1011.2 - - - - - - - - -
06/02:30am - SE 12 15 1011.1 - - - - - - - - -
06/02:00am - SE 13 15 1011.2 - - - - - - - - -
06/01:30am - ESE 14 17 1011.3 - - - - - - - - -
06/01:00am - ESE 13 16 1011.6 - - - - - - - - -
06/12:30am - ESE 16 18 1011.9 - - - - - - - - -
06/12:00am - SE 14 16 1012.1 - - - - - - - - -
 
Date/Time
EST
Temp
°C
Wind Pressure Rain since
9am
mm
Weather Cloud Vis
km
Sea
Height
m
Swell
Dir  Spd
kts
Gust
kts
hPa Trend Height
m
Period
s
Dir
05/11:30pm - SE 15 18 1012.5 - - - - - - - - -
05/11:00pm - SE 16 19 1012.7 - - - - - - - - -
05/10:30pm - ESE 14 16 1012.8 - - - - - - - - -
05/10:00pm - SE 15 17 1012.9 - - - - - - - - -
05/09:30pm - SE 15 18 1012.6 - - - - - - - - -
05/09:00pm - SE 14 18 1012.4 - - - - - - - - -
05/08:30pm - SE 13 15 1012.5 - - - - - - - - -
05/08:00pm - SE 14 16 1012.4 - - - - - - - - -
05/07:30pm - SE 15 18 1012.1 - - - - - - - - -
05/07:00pm - SE 14 17 1012.0 - - - - - - - - -
05/06:30pm - SE 15 17 1011.7 - - - - - - - - -
05/06:00pm - SE 16 18 1011.7 - - - - - - - - -
05/05:30pm - SE 14 17 1011.5 - - - - - - - - -
05/05:00pm - SE 15 18 1011.4 - - - - - - - - -
05/04:30pm - SE 15 17 1011.3 - - - - - - - - -
05/04:00pm - SE 14 17 1011.3 - - - - - - - - -
05/03:30pm - SSE 15 18 1011.3 - - - - - - - - -
05/03:00pm - SE 14 17 1011.5 - - - - - - - - -
05/02:30pm - SE 14 16 1011.9 - - - - - - - - -
05/02:00pm - SE 14 16 1012.1 - - - - - - - - -
05/01:30pm - SE 15 17 1012.3 - - - - - - - - -
05/01:00pm - SE 15 18 1012.6 - - - - - - - - -
05/12:30pm - SE 14 17 1013.0 - - - - - - - - -
05/12:00pm - SE 14 16 1013.3 - - - - - - - - -
05/11:30am - SE 13 16 1013.4 - - - - - - - - -
05/11:00am - SE 14 17 1013.8 - - - - - - - - -
05/10:30am - SE 14 16 1014.0 - - - - - - - - -
05/10:00am - SE 13 15 1014.1 - - - - - - - - -
05/09:30am - SE 15 17 1014.2 - - - - - - - - -
05/09:00am - ESE 15 18 1014.3 - - - - - - - - -
05/08:30am - SE 15 18 1014.2 - - - - - - - - -
05/08:00am - SE 13 16 1014.2 - - - - - - - - -
05/07:30am - ESE 14 16 1014.1 - - - - - - - - -
05/07:00am - SE 15 17 1013.9 - - - - - - - - -
05/06:30am - SE 17 19 1013.4 - - - - - - - - -
05/06:00am - SE 15 17 1013.0 - - - - - - - - -
05/05:30am - SE 16 19 1012.5 - - - - - - - - -
05/05:00am - SE 16 19 1012.1 - - - - - - - - -
05/04:30am - SE 14 16 1011.8 - - - - - - - - -
05/04:00am - SE 15 17 1011.7 - - - - - - - - -
05/03:30am - SE 15 18 1011.6 - - - - - - - - -
05/03:00am - SE 14 19 1011.7 - - - - - - - - -
05/02:30am - ESE 15 17 1011.7 - - - - - - - - -
05/02:00am - SE 13 16 1011.8 - - - - - - - - -
05/01:30am - ESE 14 17 1012.0 - - - - - - - - -
05/01:00am - ESE 13 16 1012.2 - - - - - - - - -
05/12:30am - ESE 14 16 1012.6 - - - - - - - - -
05/12:00am - ESE 13 16 1012.9 - - - - - - - - -
 
Date/Time
EST
Temp
°C
Wind Pressure Rain since
9am
mm
Weather Cloud Vis
km
Sea
Height
m
Swell
Dir  Spd
kts
Gust
kts
hPa Trend Height
m
Period
s
Dir
04/11:30pm - ESE 13 17 1013.2 - - - - - - - - -
04/11:00pm - ESE 14 16 1013.3 - - - - - - - - -
04/10:30pm - ESE 14 16 1013.4 - - - - - - - - -
04/10:00pm - ESE 15 17 1013.2 - - - - - - - - -
04/09:30pm - ESE 14 17 1013.1 - - - - - - - - -
04/09:00pm - ESE 14 17 1012.9 - - - - - - - - -
04/08:30pm - ESE 14 17 1012.8 - - - - - - - - -
04/08:00pm - SE 14 17 1012.7 - - - - - - - - -
04/07:30pm - SE 14 18 1012.4 - - - - - - - - -
04/07:00pm - SE 13 16 1012.3 - - - - - - - - -
04/06:30pm - SE 13 16 1011.9 - - - - - - - - -
04/06:00pm - SE 14 15 1011.9 - - - - - - - - -
04/05:30pm - SE 14 16 1011.6 - - - - - - - - -
04/05:00pm - SE 12 14 1011.4 - - - - - - - - -
04/04:30pm - SE 11 14 1011.3 - - - - - - - - -
04/04:00pm - SE 9 11 1011.4 - - - - - - - - -
04/03:30pm - SE 9 11 1011.3 - - - - - - - - -
04/03:00pm - SE 9 11 1011.5 - - - - - - - - -
04/02:30pm - SE 11 13 1011.9 - - - - - - - - -
04/02:00pm - SE 12 14 1012.3 - - - - - - - - -
04/01:30pm - SE 12 15 1012.7 - - - - - - - - -
04/01:00pm - SE 14 17 1012.9 - - - - - - - - -
04/12:30pm - SE 15 18 1013.4 - - - - - - - - -
04/12:00pm - SE 15 17 1013.8 - - - - - - - - -
04/11:30am - SE 14 17 1014.2 - - - - - - - - -
04/11:00am - ESE 12 15 1014.4 - - - - - - - - -
04/10:30am - ESE 13 15 1014.8 - - - - - - - - -
04/10:00am - ESE 14 16 1014.6 - - - - - - - - -
04/09:30am - ESE 13 16 1014.6 - - - - - - - - -
04/09:00am - ESE 13 15 1014.6 - - - - - - - - -
04/08:30am - ESE 15 18 1014.5 - - - - - - - - -
04/08:00am - ESE 14 18 1014.2 - - - - - - - - -
04/07:30am - ESE 14 17 1014.1 - - - - - - - - -
04/07:00am - ESE 16 19 1013.9 - - - - - - - - -
04/06:30am - ESE 14 17 1013.8 - - - - - - - - -
04/06:00am - ESE 13 15 1013.5 - - - - - - - - -
04/05:30am - ESE 15 19 1013.1 - - - - - - - - -
04/05:00am - ESE 14 17 1012.8 - - - - - - - - -
04/04:30am - ESE 13 16 1012.6 - - - - - - - - -
04/04:00am - ESE 14 16 1012.4 - - - - - - - - -
04/03:30am - ESE 10 13 1012.2 - - - - - - - - -
04/03:00am - ESE 11 15 1011.9 - - - - - - - - -
04/02:30am - ESE 12 13 1011.9 - - - - - - - - -
04/02:00am - ESE 11 13 1012.2 - - - - - - - - -
04/01:30am - ESE 11 14 1012.4 - - - - - - - - -
04/01:00am - E 9 11 1012.5 - - - - - - - - -
04/12:30am - ESE 10 13 1012.8 - - - - - - - - -

Other Formats:

Comma delimited format used in spreadsheet applications
http://www.bom.gov.au/fwo/IDQ60701/IDQ60701.94284.axf

JavaScript Object Notation format (JSON) in row-major order
http://www.bom.gov.au/fwo/IDQ60701/IDQ60701.94284.json